Tropical Cyclones
[Index]
Main Index Home Page Stock Weather Photos Extreme Storms Discussion Storm News and Storm Chasing Reports Tropical Cyclones / Hurricanes / Typhoons Weather Data and Links Wild Fires / Bushfires Weather Observation Techniques Weather Picture Catalogue Tornado Pictures and Reports Stock Video Footage and DVDs for sale
Season 2014-2015 Tropical Cyclone JOALANE Track Map
Season 2014-2015 Summaries (Operational Data): [AU] [SIO] [SPAC] [SH]
<<- Previous TC | 2014-2015 Season | Next TC ->>

click for intensity scale information  Lat/long Grid: Show Hide

 Date Labels: Show Hide

Operational Tropical Cyclone Data : JTWC Advisories

Name: JOALANE
Number: 1522

26 Mar 2015 12:00 UTC to 17 Apr 2015 12:00 UTC

    date/time    lat    long     hPa   cat  kts
2015-03-26 12   13.7    73.2    1010         15          
2015-03-26 18   14.0    73.9    1010         15          
2015-03-27 00   14.4    74.5    1010         15          
2015-03-27 06   15.0    74.7    1010         15          
2015-03-27 12   15.7    74.6    1007         20          
2015-03-27 18   16.0    73.8    1007         20          
2015-03-28 00   15.5    72.9    1007         20          
2015-03-28 06   15.1    72.5    1007         20          
2015-03-28 12   14.6    71.6    1007         20          
2015-03-28 18   14.7    71.3    1010         15          
2015-03-29 00   14.8    71.1    1007         20          
2015-03-29 06   14.9    70.9    1007         20          
2015-03-29 12   15.0    70.7    1007         20          
2015-03-29 18   15.1    70.4    1007         20          
2015-03-30 00   15.1    70.0    1007         20          
2015-03-30 06   15.0    69.7    1007         20          
2015-03-30 12   14.8    70.1    1007         20          
2015-03-30 18   14.9    70.9    1007         20          
2015-03-31 00   15.3    71.8    1007         20          
2015-03-31 06   15.5    72.6    1007         20          
2015-03-31 12   15.2    74.3    1007         20          
2015-03-31 18   15.4    75.4    1007         20          
2015-04-01 00   16.7    75.8    1007         20          
2015-04-01 06   17.5    75.0    1007         20          
2015-04-01 12   17.9    74.5    1004         25          
2015-04-01 18   18.1    74.0    1004         25          
2015-04-02 00   18.1    73.5    1004         25          
2015-04-02 06   18.1    73.5    1004         25          
2015-04-02 12   18.1    72.7    1004         25          
2015-04-02 18   17.7    72.4    1004         25          
2015-04-03 00   17.2    72.2    1004         25          
2015-04-03 06   16.8    72.3    1004         25          
2015-04-03 12   15.8    72.0    1004         25          
2015-04-03 18   15.5    71.3    1004         25          
2015-04-04 00   15.8    70.4    1004         25          
2015-04-04 06   15.8    69.3    1004         25          
2015-04-04 12   16.4    68.5    1004         25          
2015-04-04 18   16.5    67.1    1004         25          
2015-04-05 00   16.5    66.2    1004         25          
2015-04-05 06   15.8    65.5    1004         25          
2015-04-05 12   15.3    64.7    1004         25          
2015-04-05 18   14.9    63.8    1000         30          
2015-04-06 00   14.8    63.8     996    1    35          
2015-04-06 06   14.6    62.7     993    1    40          
2015-04-06 12   14.4    62.2     989    1    45          
2015-04-06 18   14.0    62.0     989    1    45          
2015-04-07 00   13.6    62.3     989    1    45          
2015-04-07 06   13.8    62.5     982    2    55          
2015-04-07 12   14.2    62.8     963    3    80          
2015-04-07 18   14.4    63.1     959    3    85          
2015-04-08 00   14.5    63.4     956    4    90          
2015-04-08 06   14.6    64.0     956    4    90          
2015-04-08 12   15.2    64.7     956    4    90          
2015-04-08 18   15.7    65.1     956    4    90          
2015-04-09 00   16.3    65.3     956    4    90          
2015-04-09 06   16.6    65.5     956    4    90          
2015-04-09 12   17.0    65.7     963    3    80          
2015-04-09 18   17.6    65.8     967    3    75          
2015-04-10 00   18.1    65.9     967    3    75          
2015-04-10 06   18.5    66.2     967    3    75          
2015-04-10 12   18.9    66.9     967    3    75          
2015-04-10 18   19.3    66.9     967    3    75          
2015-04-11 00   20.1    67.4     967    3    75          
2015-04-11 06   21.1    67.7     956    4    90          
2015-04-11 12   22.1    67.9     963    3    80          
2015-04-11 18   23.3    68.2     963    3    80          
2015-04-12 00   24.5    68.1     963    3    80          
2015-04-12 06   25.8    67.7     982    2    55          
2015-04-12 12   26.9    67.5     982    2    55          
2015-04-12 18   27.4    67.0     985    2    50          
2015-04-13 00   28.1    66.2     985    2    50          
2015-04-13 06   28.9    65.3     985    2    50          
2015-04-13 12   29.8    65.4     985    2    50          
2015-04-13 18   30.5    65.8     985    2    50          
2015-04-14 00   31.1    66.3     985    2    50          
2015-04-14 06   33.0    67.4     985    2    50          
2015-04-14 12   34.9    70.0                             
2015-04-14 18   35.3    70.2                             
2015-04-15 00   36.0    71.6                             
2015-04-15 06   36.9    72.8                             
2015-04-15 12   37.4    75.0                             
2015-04-15 18   37.5    76.9                             
2015-04-16 00   37.5    77.9                             
2015-04-16 06   37.4    79.3                             
2015-04-16 12   37.4    80.2                             
2015-04-16 18   38.0    81.6                             
2015-04-17 00   38.8    82.4                             
2015-04-17 06   40.2    83.7                             
2015-04-17 12   42.3    86.9                             
Winds are 10-min average.

Tropical cyclone tracks developed by Michael Bath using operational warnings and advisories and Google Maps.


[Australian Severe Weather index] [Copyright Notice] [Email Contacts] [Search This Site] [Privacy Policy]
Document: tropical_cyclone_joalane.htm Updated: 2 May 2017